Leaders Heights, Pennsylvania
Current Conditions -  °F | °C
As of 2:53 PM on Thursday 30 Oct 2014 (Local Time) from KTHV Reporting Station
Overcast Overcast  
Wind Chill: 53°   Ceiling: 5500
Heat Index: 53°   Visibility: 10mi
Dew Point: 37°   Wind: 7mph
Humidity: 55%   Direction: 300°WNW
Pressure: 30.02"   Gusts: NA
Location:  39.9503°N, 76.7105°W
Report Text: KTHV 301853Z AUTO 30006KT 10SM OVC055 12/03 A3002 RMK AO2 SLP171 T01170028
Loading
Personal Weather Stations






























Interactive Weather Map
Tropical Storm Tracking
New forecast layout! Learn more

10-Day Weather Forecast

Advertisements
Track Severe Weather on mobile